Orland Park, Illinois
Current Conditions -  °F | °C
As of 6:35 PM on Friday 24 Oct 2014 (Local Time) from KLOT Reporting Station
Scattered Clouds Scattered Clouds  
Wind Chill: 57°   Ceiling: Unl
Heat Index: 57°   Visibility: 10mi
Dew Point: 44°   Wind: 5mph
Humidity: 62%   Direction: 200°SSW
Pressure: 29.96"   Gusts: NA
Location:  41.62°N, 87.85°W
Report Text: KLOT 242335Z AUTO 20004KT 10SM SCT090 14/07 A2996 RMK AO2 T01400068
Loading
Personal Weather Stations






























Interactive Weather Map New forecast layout! Learn more

10-Day Weather Forecast

Advertisements
Track Severe Weather on mobile